createdAt,value
2022-12-27T00:00:01.604Z,2.08
2022-12-27T00:02:28.887Z,5.68
2022-12-27T00:04:56.223Z,1.05
2022-12-27T00:07:24.152Z,1.33
2022-12-27T00:09:51.593Z,1.23
2022-12-27T00:12:18.576Z,1.65
2022-12-27T00:14:45.670Z,1.63
2022-12-27T00:17:12.798Z,1.48
2022-12-27T00:19:39.998Z,1.65
2022-12-27T00:22:07.040Z,0.80
2022-12-27T00:24:35.677Z,2.08
2022-12-27T00:27:02.722Z,2.35
2022-12-27T00:29:29.764Z,0.68
2022-12-27T00:31:56.923Z,3.95
2022-12-27T00:34:24.047Z,3.15
2022-12-27T00:36:51.583Z,1.52
2022-12-27T00:39:18.702Z,1.00
2022-12-27T00:41:46.958Z,2.97
2022-12-27T00:44:13.903Z,2.45
2022-12-27T00:46:40.863Z,1.95
2022-12-27T00:49:07.873Z,1.75
2022-12-27T00:51:35.113Z,0.40
2022-12-27T00:54:02.257Z,1.05
2022-12-27T00:56:31.334Z,3.90
2022-12-27T00:59:01.522Z,0.43
2022-12-27T01:01:31.757Z,1.33
2022-12-27T01:03:59.558Z,1.13
2022-12-27T01:06:29.715Z,2.10
2022-12-27T01:08:57.447Z,1.95
2022-12-27T01:11:27.035Z,0.63
2022-12-27T01:13:58.977Z,0.50
2022-12-27T01:16:28.019Z,0.75
2022-12-27T01:18:55.680Z,3.83
2022-12-27T01:21:25.226Z,1.30
2022-12-27T01:23:52.522Z,0.65
2022-12-27T01:26:23.014Z,0.38
2022-12-27T01:28:51.708Z,0.75
2022-12-27T01:31:21.708Z,0.73
2022-12-27T01:33:49.416Z,0.50
2022-12-27T01:36:19.991Z,1.05
2022-12-27T01:38:50.471Z,0.30
2022-12-27T01:41:40.614Z,0.28
2022-12-27T01:44:43.766Z,0.50
2022-12-27T01:47:16.340Z,0.82
2022-12-27T01:49:56.065Z,1.58
2022-12-27T01:52:24.936Z,1.65
2022-12-27T01:54:53.399Z,1.65
2022-12-27T01:57:21.929Z,2.95
2022-12-27T01:59:50.232Z,0.25
2022-12-27T02:02:17.597Z,0.98
2022-12-27T02:04:46.120Z,0.73
2022-12-27T02:07:13.221Z,1.40
2022-12-27T02:09:50.183Z,1.70
2022-12-27T02:12:20.107Z,0.50
2022-12-27T02:14:49.787Z,1.05
2022-12-27T02:17:28.762Z,0.85
2022-12-27T02:19:58.811Z,0.28
2022-12-27T02:23:08.495Z,5.43
2022-12-27T02:26:21.550Z,0.40
2022-12-27T02:29:06.184Z,3.17
2022-12-27T02:31:51.300Z,0.47
2022-12-27T02:34:31.849Z,1.05
2022-12-27T02:37:05.128Z,0.35
2022-12-27T02:39:36.678Z,0.85
2022-12-27T02:42:23.341Z,0.60
2022-12-27T02:45:09.842Z,2.70
2022-12-27T02:47:56.150Z,0.20
2022-12-27T02:50:42.547Z,0.47
2022-12-27T02:53:24.843Z,0.85
2022-12-27T02:56:37.795Z,0.57
2022-12-27T02:59:09.042Z,2.05
2022-12-27T03:02:03.781Z,0.38
2022-12-27T03:04:52.261Z,0.50
2022-12-27T03:07:30.912Z,0.20
2022-12-27T03:10:37.335Z,0.65
2022-12-27T03:13:43.401Z,4.07
2022-12-27T03:16:17.553Z,0.80
2022-12-27T03:18:59.308Z,1.38
2022-12-27T03:21:47.406Z,0.20
2022-12-27T03:24:37.033Z,0.45
2022-12-27T03:27:18.849Z,0.57
2022-12-27T03:30:09.098Z,2.78
2022-12-27T03:33:01.511Z,0.60
2022-12-27T03:35:33.747Z,0.85
2022-12-27T03:38:04.167Z,0.28
2022-12-27T03:41:07.905Z,3.75
2022-12-27T03:43:36.932Z,0.35
2022-12-27T03:46:34.535Z,2.53
2022-12-27T03:49:07.442Z,2.33
2022-12-27T03:51:53.116Z,0.25
2022-12-27T03:54:41.598Z,2.22
2022-12-27T03:57:11.842Z,1.10
2022-12-27T03:59:39.778Z,0.20
2022-12-27T04:02:07.785Z,2.10
2022-12-27T04:04:35.908Z,0.80
2022-12-27T04:07:03.442Z,0.60
2022-12-27T04:09:49.146Z,0.32
2022-12-27T04:12:34.755Z,0.55
2022-12-27T04:15:20.365Z,0.88
2022-12-27T04:18:06.006Z,3.22
2022-12-27T04:20:51.950Z,0.85
2022-12-27T04:23:38.748Z,2.13
2022-12-27T04:26:24.411Z,1.15
2022-12-27T04:29:10.103Z,0.68
2022-12-27T04:31:55.724Z,0.20
2022-12-27T04:34:41.092Z,1.80
2022-12-27T04:37:09.625Z,0.52
2022-12-27T04:39:36.498Z,0.98
2022-12-27T04:42:22.238Z,2.33
2022-12-27T04:45:27.738Z,0.43
2022-12-27T04:48:23.528Z,2.05
2022-12-27T04:51:09.241Z,0.70
2022-12-27T04:53:54.797Z,2.83
2022-12-27T04:56:21.700Z,2.17
2022-12-27T04:59:07.112Z,1.15
2022-12-27T05:01:52.557Z,0.43
2022-12-27T05:04:19.509Z,2.55
2022-12-27T05:06:46.669Z,1.70
2022-12-27T05:09:32.135Z,2.53
2022-12-27T05:12:34.561Z,2.00
2022-12-27T05:15:01.398Z,0.82
2022-12-27T05:17:30.209Z,0.52
2022-12-27T05:19:57.037Z,1.33
2022-12-27T05:22:42.365Z,0.88
2022-12-27T05:25:28.509Z,1.35
2022-12-27T05:27:55.278Z,2.00
2022-12-27T05:30:22.126Z,1.35
2022-12-27T05:32:48.923Z,2.08
2022-12-27T05:35:15.869Z,1.65
2022-12-27T05:37:42.655Z,1.27
2022-12-27T05:40:10.581Z,1.98
2022-12-27T05:42:37.381Z,0.47
2022-12-27T05:45:04.792Z,2.55
2022-12-27T05:47:31.621Z,0.35
2022-12-27T05:49:58.421Z,1.50
2022-12-27T05:52:25.354Z,0.47
2022-12-27T05:54:52.202Z,1.23
2022-12-27T05:57:19.162Z,2.70
2022-12-27T05:59:46.060Z,0.57
2022-12-27T06:02:13.011Z,0.70
2022-12-27T06:04:39.932Z,1.77
2022-12-27T06:07:06.963Z,1.02
2022-12-27T06:09:33.819Z,0.98
2022-12-27T06:12:00.683Z,0.30
2022-12-27T06:14:27.595Z,2.28
2022-12-27T06:16:54.581Z,1.95
2022-12-27T06:19:21.432Z,2.70
2022-12-27T06:21:49.374Z,1.38
2022-12-27T06:24:16.989Z,0.85
2022-12-27T06:26:43.977Z,0.85
2022-12-27T06:29:12.896Z,3.70
2022-12-27T06:31:39.957Z,0.20
2022-12-27T06:34:06.826Z,0.55
2022-12-27T06:36:33.711Z,1.42
2022-12-27T06:39:00.793Z,1.60
2022-12-27T06:41:27.884Z,0.88
2022-12-27T06:43:56.957Z,0.60
2022-12-27T06:46:24.804Z,0.90
2022-12-27T06:48:52.375Z,1.27
2022-12-27T06:51:21.001Z,2.15
2022-12-27T06:53:49.067Z,0.85
2022-12-27T06:56:19.125Z,0.30
2022-12-27T06:58:47.602Z,0.30
2022-12-27T07:01:34.783Z,8.35
2022-12-27T07:04:01.884Z,3.10
2022-12-27T07:06:30.778Z,3.67
2022-12-27T07:09:00.287Z,6.97
2022-12-27T07:11:27.545Z,16.17
2022-12-27T07:13:56.204Z,6.63
2022-12-27T07:16:28.374Z,9.48
2022-12-27T07:18:57.056Z,6.28
2022-12-27T07:21:26.399Z,6.18
2022-12-27T07:23:53.680Z,9.60
2022-12-27T07:26:28.809Z,15.65
2022-12-27T07:28:57.494Z,9.25
2022-12-27T07:31:26.869Z,33.28
2022-12-27T07:33:54.091Z,14.10
2022-12-27T07:36:24.382Z,28.10
2022-12-27T07:38:51.944Z,27.70
2022-12-27T07:41:19.259Z,18.25
2022-12-27T07:43:46.449Z,15.27
2022-12-27T07:46:16.531Z,16.50
2022-12-27T07:48:44.084Z,17.73
2022-12-27T07:51:12.871Z,13.05
2022-12-27T07:53:40.388Z,17.73
2022-12-27T07:56:21.681Z,26.10
2022-12-27T07:58:53.174Z,15.70
2022-12-27T08:01:21.636Z,18.50
2022-12-27T08:03:49.348Z,13.63
2022-12-27T08:06:26.180Z,13.40
2022-12-27T08:08:54.247Z,8.38
2022-12-27T08:11:21.825Z,9.75
2022-12-27T08:13:48.932Z,7.15
2022-12-27T08:16:22.585Z,9.13
2022-12-27T08:18:49.666Z,13.63
2022-12-27T08:21:17.177Z,11.82
2022-12-27T08:23:44.589Z,12.98
2022-12-27T08:26:11.987Z,16.75
2022-12-27T08:28:39.338Z,15.68
2022-12-27T08:31:10.677Z,11.75
2022-12-27T08:33:38.925Z,14.95
2022-12-27T08:36:53.500Z,33.83
2022-12-27T08:38:56.305Z,82.60
2022-12-27T08:41:24.151Z,53.90
2022-12-27T08:43:51.353Z,47.72
2022-12-27T08:46:19.928Z,41.45
2022-12-27T08:48:49.185Z,39.78
2022-12-27T08:51:24.782Z,24.27
2022-12-27T08:53:57.937Z,22.15
2022-12-27T08:56:25.543Z,18.75
2022-12-27T08:58:52.807Z,30.48
2022-12-27T09:01:20.029Z,51.53
2022-12-27T09:03:47.642Z,62.75
2022-12-27T09:06:21.378Z,51.42
2022-12-27T09:08:49.545Z,42.17
2022-12-27T09:11:26.365Z,38.40
2022-12-27T09:13:54.459Z,31.67
2022-12-27T09:16:24.885Z,35.47
2022-12-27T09:18:54.949Z,32.50
2022-12-27T09:21:24.431Z,24.70
2022-12-27T09:23:52.420Z,24.77
2022-12-27T09:26:28.703Z,20.90
2022-12-27T09:28:56.922Z,19.73
2022-12-27T09:31:25.175Z,20.17
2022-12-27T09:33:53.291Z,17.35
2022-12-27T09:36:23.720Z,16.42
2022-12-27T09:38:53.104Z,19.35
2022-12-27T09:42:43.745Z,20.95
2022-12-27T09:44:35.063Z,11.25
2022-12-27T09:47:11.458Z,16.83
2022-12-27T09:49:49.424Z,14.25
2022-12-27T09:52:22.173Z,9.48
2022-12-27T09:55:11.812Z,12.32
2022-12-27T09:57:45.586Z,8.05
2022-12-27T10:00:30.249Z,7.55
2022-12-27T10:03:06.750Z,8.73
2022-12-27T10:08:21.041Z,7.95
2022-12-27T10:10:53.145Z,4.93
2022-12-27T10:13:48.257Z,21.33
2022-12-27T10:16:21.377Z,19.15
2022-12-27T10:19:25.573Z,17.88
2022-12-27T10:22:20.884Z,12.85
2022-12-27T10:24:56.525Z,9.93
2022-12-27T10:27:27.166Z,14.57
2022-12-27T10:29:56.111Z,15.10
2022-12-27T10:32:23.760Z,17.85
2022-12-27T10:34:56.873Z,10.93
2022-12-27T10:37:24.178Z,7.40
2022-12-27T10:39:51.046Z,7.93
2022-12-27T10:42:38.961Z,7.85
2022-12-27T10:45:42.966Z,7.45
2022-12-27T10:48:28.907Z,7.55
2022-12-27T10:51:11.593Z,4.57
2022-12-27T10:53:39.562Z,2.38
2022-12-27T10:56:21.407Z,4.47
2022-12-27T10:58:58.166Z,7.03
2022-12-27T11:01:29.184Z,4.18
2022-12-27T11:04:20.308Z,11.53
2022-12-27T11:07:10.844Z,4.38
2022-12-27T11:09:37.983Z,6.22
2022-12-27T11:12:33.965Z,7.72
2022-12-27T11:15:19.179Z,4.25
2022-12-27T11:17:49.573Z,7.18
2022-12-27T11:20:37.948Z,4.15
2022-12-27T11:23:13.437Z,3.65
2022-12-27T11:26:07.274Z,3.05
2022-12-27T11:28:40.544Z,8.32
2022-12-27T11:31:11.212Z,17.17
2022-12-27T11:33:42.739Z,13.38
2022-12-27T11:36:12.952Z,26.73
2022-12-27T11:38:44.947Z,20.55
2022-12-27T11:41:32.377Z,17.02
2022-12-27T11:44:25.662Z,19.75
2022-12-27T11:47:07.967Z,17.25
2022-12-27T11:49:38.763Z,16.48
2022-12-27T11:52:14.635Z,7.90
2022-12-27T11:54:48.003Z,9.13
2022-12-27T11:57:14.999Z,8.80
2022-12-27T12:00:06.983Z,9.65
2022-12-27T12:02:43.503Z,3.40
2022-12-27T12:05:32.615Z,9.45
2022-12-27T12:08:23.148Z,6.03
2022-12-27T12:11:20.388Z,14.27
2022-12-27T12:14:24.297Z,5.03
2022-12-27T12:17:14.996Z,12.07
2022-12-27T12:20:06.837Z,11.77
2022-12-27T12:23:15.996Z,5.22
2022-12-27T12:26:07.881Z,3.25
2022-12-27T12:28:58.603Z,4.35
2022-12-27T12:31:58.977Z,6.10
2022-12-27T12:35:00.235Z,13.00
2022-12-27T12:37:45.898Z,4.20
2022-12-27T12:40:43.764Z,5.97
2022-12-27T12:43:36.946Z,3.72
2022-12-27T12:46:16.151Z,3.63
2022-12-27T12:49:10.546Z,6.55
2022-12-27T12:51:56.206Z,9.18
2022-12-27T12:54:43.881Z,8.85
2022-12-27T12:57:48.129Z,8.10
2022-12-27T13:00:21.425Z,32.53
2022-12-27T13:03:18.402Z,47.28
2022-12-27T13:06:08.609Z,24.30
2022-12-27T13:09:03.048Z,23.65
2022-12-27T13:11:57.014Z,21.17
2022-12-27T13:14:31.192Z,21.73
2022-12-27T13:17:15.986Z,97.97
2022-12-27T13:20:18.239Z,196.50
2022-12-27T13:23:00.681Z,156.23
2022-12-27T13:25:47.131Z,131.25
2022-12-27T13:28:47.195Z,132.07
2022-12-27T13:31:49.789Z,117.25
2022-12-27T13:34:39.544Z,134.50
2022-12-27T13:37:07.109Z,188.18
2022-12-27T13:39:46.448Z,159.95
2022-12-27T13:42:52.824Z,178.80
2022-12-27T13:45:50.529Z,189.20
2022-12-27T13:48:53.156Z,146.13
2022-12-27T13:51:44.492Z,149.93
2022-12-27T13:54:39.537Z,117.22
2022-12-27T13:57:37.275Z,94.25
2022-12-27T14:00:15.845Z,117.75
2022-12-27T14:03:15.114Z,199.65
2022-12-27T14:05:42.537Z,259.65
2022-12-27T14:08:36.834Z,215.98
2022-12-27T14:11:24.218Z,215.27
2022-12-27T14:13:53.283Z,249.98
2022-12-27T14:16:45.331Z,206.77
2022-12-27T14:19:39.715Z,177.45
2022-12-27T14:22:35.683Z,149.20
2022-12-27T14:25:31.968Z,150.35
2022-12-27T14:28:01.875Z,111.03
2022-12-27T14:30:38.393Z,114.80
2022-12-27T14:33:05.757Z,99.50
2022-12-27T14:35:58.965Z,88.30
2022-12-27T14:38:32.615Z,84.93
2022-12-27T14:41:21.222Z,59.75
2022-12-27T14:43:48.197Z,62.90
2022-12-27T14:46:34.669Z,52.70
2022-12-27T14:49:45.341Z,60.22
2022-12-27T14:52:41.568Z,62.97
2022-12-27T14:55:36.107Z,52.53
2022-12-27T14:58:16.901Z,48.53
2022-12-27T15:01:09.877Z,42.42
2022-12-27T15:03:46.385Z,42.72
2022-12-27T15:06:34.295Z,29.33
2022-12-27T15:09:25.290Z,29.08
2022-12-27T15:12:01.375Z,26.73
2022-12-27T15:15:02.751Z,27.55
2022-12-27T15:20:35.855Z,20.55
2022-12-27T15:23:09.240Z,15.15
2022-12-27T15:25:45.870Z,11.65
2022-12-27T15:28:34.337Z,10.20
2022-12-27T15:31:10.900Z,11.32
2022-12-27T15:33:40.804Z,19.20
2022-12-27T15:36:14.591Z,31.38
2022-12-27T15:39:02.003Z,11.85
2022-12-27T15:42:06.158Z,49.30
2022-12-27T15:44:45.454Z,32.33
2022-12-27T15:47:36.874Z,11.57
2022-12-27T15:50:10.033Z,7.63
2022-12-27T15:52:55.241Z,9.40
2022-12-27T15:56:07.279Z,7.15
2022-12-27T15:58:35.205Z,11.70
2022-12-27T16:01:33.732Z,5.47
2022-12-27T16:04:43.146Z,1.83
2022-12-27T16:07:44.074Z,6.75
2022-12-27T16:10:36.608Z,2.78
2022-12-27T16:13:13.615Z,7.63
2022-12-27T16:15:46.192Z,8.68
2022-12-27T16:18:22.726Z,1.90
2022-12-27T16:21:20.050Z,1.30
2022-12-27T16:23:48.659Z,9.00
2022-12-27T16:26:36.897Z,5.97
2022-12-27T16:29:15.379Z,5.60
2022-12-27T16:31:48.713Z,8.02
2022-12-27T16:34:28.832Z,8.00
2022-12-27T16:37:04.435Z,23.23
2022-12-27T16:40:09.333Z,21.50
2022-12-27T16:42:54.976Z,21.20
2022-12-27T16:45:42.875Z,22.75
2022-12-27T16:48:43.894Z,20.13
2022-12-27T16:51:35.583Z,16.33
2022-12-27T16:54:15.591Z,13.95
2022-12-27T16:56:52.305Z,20.02
2022-12-27T17:00:13.979Z,12.32
2022-12-27T17:02:47.017Z,19.77
2022-12-27T17:05:17.428Z,9.30
2022-12-27T17:08:21.504Z,15.00
2022-12-27T17:10:51.793Z,13.00
2022-12-27T17:13:27.512Z,18.63
2022-12-27T17:16:13.672Z,20.35
2022-12-27T17:18:52.622Z,15.45
2022-12-27T17:21:30.449Z,16.63
2022-12-27T17:24:10.913Z,19.90
2022-12-27T17:26:56.595Z,20.50
2022-12-27T17:29:50.458Z,13.85
2022-12-27T17:32:42.821Z,15.27
2022-12-27T17:35:28.565Z,17.15
2022-12-27T17:37:57.458Z,22.30
2022-12-27T17:40:49.716Z,22.10
2022-12-27T17:44:05.134Z,21.73
2022-12-27T17:47:03.262Z,21.15
2022-12-27T17:49:34.334Z,15.88
2022-12-27T17:55:07.145Z,23.50
2022-12-27T17:57:56.760Z,13.63
2022-12-27T18:00:27.779Z,8.93
2022-12-27T18:03:03.503Z,11.75
2022-12-27T18:05:33.761Z,11.18
2022-12-27T18:08:10.777Z,16.90
2022-12-27T18:10:38.373Z,7.47
2022-12-27T18:13:07.280Z,6.68
2022-12-27T18:15:37.720Z,17.27
2022-12-27T18:18:08.964Z,59.38
2022-12-27T18:20:39.185Z,11.73
2022-12-27T18:23:14.412Z,13.52
2022-12-27T18:25:46.240Z,14.98
2022-12-27T18:28:24.709Z,12.02
2022-12-27T18:30:57.770Z,12.20
2022-12-27T18:33:34.200Z,7.45
2022-12-27T18:36:05.285Z,11.45
2022-12-27T18:41:22.855Z,8.35
2022-12-27T18:44:00.140Z,6.35
2022-12-27T18:46:32.781Z,7.05
2022-12-27T18:49:02.319Z,7.93
2022-12-27T18:51:34.926Z,14.95
2022-12-27T18:54:02.941Z,14.95
2022-12-27T18:56:35.124Z,21.77
2022-12-27T18:59:23.355Z,20.67
2022-12-27T19:01:51.391Z,19.40
2022-12-27T19:04:22.541Z,11.50
2022-12-27T19:06:57.496Z,8.85
2022-12-27T19:09:29.725Z,36.88
2022-12-27T19:12:05.355Z,28.30
2022-12-27T19:14:44.546Z,28.08
2022-12-27T19:17:24.378Z,29.55
2022-12-27T19:19:55.208Z,18.90
2022-12-27T19:22:37.591Z,19.85
2022-12-27T19:25:22.865Z,17.75
2022-12-27T19:28:03.180Z,22.77
2022-12-27T19:30:36.540Z,18.63
2022-12-27T19:33:09.587Z,27.08
2022-12-27T19:35:37.911Z,48.95
2022-12-27T19:38:06.783Z,50.72
2022-12-27T19:40:34.173Z,50.28
2022-12-27T19:43:02.226Z,42.33
2022-12-27T19:45:30.356Z,48.83
2022-12-27T19:47:59.246Z,37.28
2022-12-27T19:50:26.632Z,37.00
2022-12-27T19:52:53.815Z,38.88
2022-12-27T19:55:27.806Z,59.13
2022-12-27T19:57:55.643Z,33.10
2022-12-27T20:00:24.681Z,35.20
2022-12-27T20:02:52.995Z,26.02
2022-12-27T20:06:14.985Z,32.42
2022-12-27T20:08:23.273Z,30.38
2022-12-27T20:10:50.783Z,25.90
2022-12-27T20:13:17.956Z,19.50
2022-12-27T20:15:45.058Z,26.23
2022-12-27T20:18:13.715Z,19.75
2022-12-27T20:20:41.124Z,20.35
2022-12-27T20:23:08.829Z,18.23
2022-12-27T20:25:39.295Z,13.55
2022-12-27T20:28:09.080Z,19.73
2022-12-27T20:30:42.599Z,17.35
2022-12-27T20:33:11.498Z,17.98
2022-12-27T20:35:43.512Z,16.83
2022-12-27T20:38:15.031Z,52.55
2022-12-27T20:40:44.001Z,15.52
2022-12-27T20:43:14.137Z,11.13
2022-12-27T20:45:42.556Z,15.90
2022-12-27T20:48:10.048Z,22.52
2022-12-27T20:50:39.447Z,16.45
2022-12-27T20:53:09.125Z,25.85
2022-12-27T20:55:37.060Z,18.30
2022-12-27T20:58:05.547Z,13.07
2022-12-27T21:00:33.139Z,18.27
2022-12-27T21:03:01.296Z,8.80
2022-12-27T21:05:31.866Z,27.70
2022-12-27T21:07:59.695Z,10.77
2022-12-27T21:10:28.308Z,12.23
2022-12-27T21:12:56.316Z,10.68
2022-12-27T21:15:25.720Z,12.27
2022-12-27T21:17:53.120Z,16.80
2022-12-27T21:20:20.623Z,23.20
2022-12-27T21:22:50.088Z,12.07
2022-12-27T21:25:18.681Z,9.57
2022-12-27T21:27:51.709Z,7.50
2022-12-27T21:30:20.249Z,3.72
2022-12-27T21:32:49.067Z,3.75
2022-12-27T21:35:18.131Z,4.25
2022-12-27T21:37:46.514Z,2.47
2022-12-27T21:40:15.343Z,38.97
2022-12-27T21:42:44.288Z,16.40
2022-12-27T21:45:15.336Z,6.00
2022-12-27T21:47:44.352Z,7.85
2022-12-27T21:50:12.519Z,5.00
2022-12-27T21:52:40.451Z,5.45
2022-12-27T21:55:08.174Z,4.40
2022-12-27T21:57:35.578Z,3.72
2022-12-27T22:00:06.384Z,3.70
2022-12-27T22:02:34.237Z,17.80
2022-12-27T22:05:05.561Z,22.73
2022-12-27T22:10:03.102Z,15.55
2022-12-27T22:12:34.606Z,5.82
2022-12-27T22:15:03.820Z,5.07
2022-12-27T22:17:33.797Z,8.93
2022-12-27T22:20:02.117Z,4.80
2022-12-27T22:22:32.065Z,11.60
2022-12-27T22:25:04.916Z,7.28
2022-12-27T22:27:32.355Z,9.20
2022-12-27T22:30:01.195Z,4.95
2022-12-27T22:32:31.668Z,4.05
2022-12-27T22:34:59.125Z,2.50
2022-12-27T22:37:26.999Z,2.70
2022-12-27T22:39:55.711Z,10.05
2022-12-27T22:42:23.454Z,5.03
2022-12-27T22:44:50.959Z,6.63
2022-12-27T22:47:27.767Z,2.30
2022-12-27T22:49:55.522Z,8.30
2022-12-27T22:52:23.111Z,7.35
2022-12-27T22:55:03.962Z,2.53
2022-12-27T22:57:34.473Z,9.20
2022-12-27T23:00:01.910Z,2.50
2022-12-27T23:02:29.615Z,2.78
2022-12-27T23:04:59.109Z,2.90
2022-12-27T23:08:03.290Z,7.07
2022-12-27T23:10:13.835Z,8.50
2022-12-27T23:12:41.306Z,5.25
2022-12-27T23:15:10.087Z,3.10
2022-12-27T23:17:46.203Z,5.72
2022-12-27T23:20:14.229Z,7.45
2022-12-27T23:22:41.899Z,3.80
2022-12-27T23:25:09.734Z,2.35
2022-12-27T23:27:38.823Z,4.40
2022-12-27T23:30:07.188Z,4.47
2022-12-27T23:32:35.472Z,3.47
2022-12-27T23:35:04.337Z,5.50
2022-12-27T23:37:32.631Z,2.85
2022-12-27T23:40:00.060Z,1.85
2022-12-27T23:42:27.605Z,1.58
2022-12-27T23:44:54.956Z,2.47
2022-12-27T23:47:22.233Z,2.53
2022-12-27T23:49:49.456Z,5.10
2022-12-27T23:52:17.087Z,4.72
2022-12-27T23:54:45.711Z,5.00
2022-12-27T23:57:20.292Z,1.90
2022-12-27T23:59:49.985Z,7.13
